Time;durP1;ratioP1;P1;durP2;ratioP2;P2;SDS_P1;SDS_P2;PMS_P1;PMS_P2;Temp;Humidity;BMP_temperature;BMP_pressure;BME280_temperature;BME280_humidity;BME280_pressure;Samples;Min_cycle;Max_cycle;Signal;HPM_P1;HPM_P2
2022/07/29 00:00:58;;;;;;;14.60;3.25;;;25.90;69.50;;;;;;5025183;28;20172;-58
2022/07/29 00:03:24;;;;;;;9.02;3.20;;;25.90;69.60;;;;;;5025790;28;20124;-58
2022/07/29 00:05:51;;;;;;;8.30;3.08;;;25.90;69.60;;;;;;5027556;28;20431;-59
2022/07/29 00:08:17;;;;;;;12.00;3.00;;;25.90;69.60;;;;;;5023870;28;20528;-60
2022/07/29 00:10:42;;;;;;;8.70;2.95;;;25.80;69.60;;;;;;5025847;28;20040;-58
2022/07/29 00:13:08;;;;;;;10.77;2.72;;;25.80;69.70;;;;;;5025038;28;20063;-58
2022/07/29 00:15:33;;;;;;;11.25;2.53;;;25.80;69.80;;;;;;5023206;28;20115;-59
2022/07/29 00:17:59;;;;;;;12.38;2.70;;;25.80;69.90;;;;;;5008403;28;20200;-59
2022/07/29 00:20:24;;;;;;;11.07;2.95;;;25.80;69.90;;;;;;5026807;28;20527;-59
2022/07/29 00:22:50;;;;;;;8.63;2.80;;;25.70;69.90;;;;;;5022495;28;20083;-59
2022/07/29 00:25:16;;;;;;;9.27;2.90;;;25.70;70.00;;;;;;5022781;28;20021;-59
2022/07/29 00:27:41;;;;;;;11.88;2.97;;;25.70;69.90;;;;;;5025400;28;20389;-59
2022/07/29 00:30:07;;;;;;;7.68;2.85;;;25.70;69.90;;;;;;5024701;28;20551;-59
2022/07/29 00:32:33;;;;;;;9.88;2.17;;;25.70;70.00;;;;;;5025121;28;20079;-59
2022/07/29 00:37:42;;;;;;;12.25;3.28;;;25.60;70.10;;;;;;5022280;28;20080;-59
2022/07/29 00:40:08;;;;;;;9.68;2.83;;;25.60;70.30;;;;;;5023108;28;20073;-59
2022/07/29 00:42:44;;;;;;;8.73;2.95;;;25.50;70.30;;;;;;5024023;28;20441;-62
2022/07/29 00:45:10;;;;;;;6.55;2.60;;;25.50;70.40;;;;;;5023614;28;20037;-59
2022/07/29 00:47:35;;;;;;;9.82;2.65;;;25.50;70.20;;;;;;5023410;28;20029;-59
2022/07/29 00:50:01;;;;;;;6.55;2.33;;;25.60;70.30;;;;;;5024552;28;20030;-59
2022/07/29 00:52:26;;;;;;;10.68;2.80;;;25.50;70.20;;;;;;5023124;28;20033;-59
2022/07/29 00:54:52;;;;;;;27.13;4.22;;;25.50;70.30;;;;;;5006717;28;20921;-59
2022/07/29 00:57:17;;;;;;;124.05;10.95;;;25.40;70.40;;;;;;5006856;28;20034;-59
2022/07/29 00:59:43;;;;;;;71.05;8.25;;;25.40;70.50;;;;;;5024859;28;20029;-59
2022/07/29 01:02:08;;;;;;;40.45;6.45;;;25.40;70.50;;;;;;5023940;28;20432;-59
2022/07/29 01:04:34;;;;;;;40.35;5.60;;;25.40;70.60;;;;;;5022983;28;20137;-59
2022/07/29 01:07:01;;;;;;;23.63;5.25;;;25.30;70.60;;;;;;5022098;28;20060;-59
2022/07/29 01:09:26;;;;;;;34.70;5.45;;;25.40;70.70;;;;;;5022331;28;20056;-59
2022/07/29 01:11:52;;;;;;;30.45;4.82;;;25.30;70.70;;;;;;5024213;28;20056;-59
2022/07/29 01:14:17;;;;;;;25.67;4.45;;;25.30;70.70;;;;;;5023027;28;20087;-59
2022/07/29 01:16:55;;;;;;;29.20;4.55;;;25.30;70.70;;;;;;5022357;28;20041;-59
2022/07/29 01:19:49;;;;;;;26.10;3.95;;;25.30;70.70;;;;;;5007265;28;20038;-59
2022/07/29 01:22:56;;;;;;;22.83;4.45;;;25.30;70.80;;;;;;5008654;28;20041;-59
2022/07/29 01:25:27;;;;;;;;;;;25.30;70.80;;;;;;5017820;28;20037;-59
2022/07/29 01:27:56;;;;;;;25.27;4.05;;;25.20;70.70;;;;;;5021886;28;20372;-59
2022/07/29 01:30:22;;;;;;;21.52;4.18;;;25.30;70.80;;;;;;5023280;28;20083;-58
2022/07/29 01:32:48;;;;;;;21.95;4.03;;;25.30;70.90;;;;;;5005159;28;20043;-59
2022/07/29 01:35:21;;;;;;;17.30;4.57;;;25.20;70.90;;;;;;5005815;28;20023;-59
2022/07/29 01:38:01;;;;;;;19.60;4.20;;;25.20;70.90;;;;;;4991209;28;20033;-59
2022/07/29 01:40:34;;;;;;;13.98;3.53;;;25.20;70.90;;;;;;5007310;28;20028;-59
2022/07/29 01:43:02;;;;;;;12.43;3.38;;;25.20;71.00;;;;;;5022893;28;20034;-59
2022/07/29 01:45:46;;;;;;;22.65;4.45;;;25.20;71.10;;;;;;5006591;28;20034;-60
2022/07/29 01:48:39;;;;;;;21.63;3.70;;;25.10;71.10;;;;;;5022444;28;20033;-59
2022/07/29 01:51:14;;;;;;;16.00;3.13;;;25.10;71.20;;;;;;5023193;28;20029;-59
2022/07/29 01:53:54;;;;;;;21.92;3.50;;;25.10;71.20;;;;;;5008116;28;20025;-59
2022/07/29 01:56:20;;;;;;;16.33;3.10;;;24.90;71.20;;;;;;5005650;28;20121;-59
2022/07/29 01:58:45;;;;;;;17.73;3.40;;;25.00;71.30;;;;;;5022530;28;20256;-59
2022/07/29 02:01:11;;;;;;;13.07;3.10;;;25.10;71.40;;;;;;5003946;28;20144;-59
2022/07/29 02:03:37;;;;;;;16.05;3.30;;;25.00;71.30;;;;;;5003675;28;20124;-59
2022/07/29 02:06:03;;;;;;;13.75;3.47;;;25.10;71.40;;;;;;5005717;28;20169;-59
2022/07/29 02:08:29;;;;;;;13.23;3.33;;;25.00;71.40;;;;;;5022266;28;21064;-59
2022/07/29 02:10:54;;;;;;;14.68;3.50;;;25.00;71.50;;;;;;5005235;28;20273;-59
2022/07/29 02:13:19;;;;;;;13.27;3.28;;;25.00;71.60;;;;;;5004419;28;20277;-59
2022/07/29 02:15:45;;;;;;;12.38;3.38;;;25.00;71.70;;;;;;5023930;28;20473;-59
2022/07/29 02:18:15;;;;;;;14.85;3.20;;;24.90;71.60;;;;;;5021139;28;20100;-59
2022/07/29 02:20:42;;;;;;;13.85;2.85;;;25.00;71.80;;;;;;5021042;28;20496;-59
2022/07/29 02:23:10;;;;;;;13.85;3.03;;;24.90;72.10;;;;;;5004617;28;20057;-59
2022/07/29 02:25:36;;;;;;;13.95;3.22;;;24.90;72.20;;;;;;5004919;28;20505;-59
2022/07/29 02:28:01;;;;;;;14.93;3.00;;;24.90;72.10;;;;;;5022146;28;20049;-59
2022/07/29 02:30:27;;;;;;;11.70;3.15;;;24.90;72.10;;;;;;5006865;28;20037;-59
2022/07/29 02:32:52;;;;;;;13.10;3.22;;;24.90;72.10;;;;;;5005049;28;20128;-59
2022/07/29 02:35:18;;;;;;;14.57;2.63;;;24.90;72.30;;;;;;5006167;28;20189;-59
2022/07/29 02:37:44;;;;;;;7.63;2.22;;;24.90;72.50;;;;;;5000448;28;20331;-59
2022/07/29 02:40:13;;;;;;;13.95;3.15;;;24.80;72.50;;;;;;5022145;28;20080;-59
2022/07/29 02:42:38;;;;;;;6.53;2.65;;;24.80;72.60;;;;;;5005072;28;20021;-59
2022/07/29 02:45:05;;;;;;;10.43;2.85;;;24.80;72.70;;;;;;5022311;28;20041;-59
2022/07/29 02:47:36;;;;;;;6.93;2.63;;;24.80;72.70;;;;;;5003818;28;21048;-59
2022/07/29 02:50:11;;;;;;;5.18;2.20;;;24.80;72.80;;;;;;5021079;28;20497;-59
2022/07/29 02:52:43;;;;;;;11.90;3.15;;;24.70;72.70;;;;;;5006011;28;20485;-60
2022/07/29 02:55:26;;;;;;;10.35;2.38;;;24.70;72.80;;;;;;5018999;28;20408;-60
2022/07/29 02:57:59;;;;;;;9.32;2.90;;;24.70;72.80;;;;;;5003333;28;20048;-58
2022/07/29 03:00:26;;;;;;;9.43;2.78;;;24.70;72.90;;;;;;5021170;28;20100;-58
2022/07/29 03:02:53;;;;;;;8.55;2.92;;;24.70;72.90;;;;;;5020992;28;20284;-59
2022/07/29 03:05:20;;;;;;;16.30;2.85;;;24.70;72.90;;;;;;5005690;28;20056;-58
2022/07/29 03:07:47;;;;;;;11.35;2.95;;;24.60;73.00;;;;;;5021797;28;20515;-61
2022/07/29 03:10:13;;;;;;;17.63;3.00;;;24.60;73.20;;;;;;5022691;28;20337;-60
2022/07/29 03:12:38;;;;;;;17.25;3.30;;;24.60;73.30;;;;;;5003741;28;20840;-61
2022/07/29 03:15:04;;;;;;;11.98;2.78;;;24.60;73.30;;;;;;5005046;28;20500;-60
2022/07/29 03:17:30;;;;;;;13.70;2.83;;;24.50;73.20;;;;;;5019756;28;20407;-61
2022/07/29 03:19:55;;;;;;;9.75;3.25;;;24.60;73.40;;;;;;5004821;28;20113;-60
2022/07/29 03:22:21;;;;;;;15.95;2.92;;;24.50;73.20;;;;;;4988126;28;20044;-61
2022/07/29 03:24:46;;;;;;;11.00;2.78;;;24.60;73.40;;;;;;5004250;28;20043;-60
2022/07/29 03:27:12;;;;;;;13.30;2.67;;;24.50;73.30;;;;;;5021795;28;20095;-61
2022/07/29 03:29:37;;;;;;;8.23;2.50;;;24.50;73.30;;;;;;5021314;28;20026;-61
2022/07/29 03:32:04;;;;;;;13.82;2.70;;;24.50;73.30;;;;;;5019415;28;20044;-61
2022/07/29 03:34:29;;;;;;;15.70;3.15;;;24.50;73.40;;;;;;5024132;28;20201;-61
2022/07/29 03:36:55;;;;;;;17.60;3.85;;;24.50;73.50;;;;;;5021756;28;20083;-58
2022/07/29 03:39:22;;;;;;;19.75;3.65;;;24.50;73.60;;;;;;5003836;28;20080;-59
2022/07/29 03:41:49;;;;;;;13.40;3.35;;;24.50;73.70;;;;;;5019691;28;20036;-61
2022/07/29 03:44:15;;;;;;;7.32;2.97;;;24.40;73.70;;;;;;5020986;28;20237;-61
2022/07/29 03:46:41;;;;;;;13.55;3.40;;;24.40;73.70;;;;;;5004431;28;20034;-61
2022/07/29 03:49:08;;;;;;;12.00;3.03;;;24.40;73.70;;;;;;5003832;28;20482;-61
2022/07/29 03:51:33;;;;;;;18.20;3.20;;;24.40;74.50;;;;;;5004071;28;20515;-61
2022/07/29 03:53:59;;;;;;;15.43;3.03;;;24.40;73.80;;;;;;5019044;28;20041;-62
2022/07/29 03:56:24;;;;;;;12.82;2.92;;;24.40;73.90;;;;;;5020144;28;20084;-60
2022/07/29 03:58:50;;;;;;;10.48;2.58;;;24.40;73.90;;;;;;5003831;28;20683;-61
2022/07/29 04:01:17;;;;;;;13.50;2.88;;;24.40;74.00;;;;;;5005960;28;20530;-61
2022/07/29 04:03:45;;;;;;;15.23;2.78;;;24.40;74.20;;;;;;5020443;28;20115;-61
2022/07/29 04:06:10;;;;;;;8.20;2.50;;;24.40;74.20;;;;;;5003189;28;20061;-61
2022/07/29 04:08:36;;;;;;;12.45;2.83;;;24.40;74.20;;;;;;5018966;28;20570;-61
2022/07/29 04:11:01;;;;;;;15.70;2.60;;;24.30;74.10;;;;;;5020855;28;20028;-61
2022/07/29 04:13:27;;;;;;;13.77;3.25;;;24.40;74.30;;;;;;4985365;28;20041;-61
2022/07/29 04:15:52;;;;;;;9.88;2.65;;;24.30;74.40;;;;;;5003831;28;20473;-59
2022/07/29 04:18:18;;;;;;;10.70;2.90;;;24.30;74.50;;;;;;5021508;28;20385;-61
2022/07/29 04:20:43;;;;;;;10.95;2.58;;;24.30;74.60;;;;;;5021210;28;20042;-62
2022/07/29 04:23:09;;;;;;;7.00;2.35;;;24.30;74.80;;;;;;5021062;28;20488;-61
2022/07/29 04:25:38;;;;;;;8.70;2.55;;;24.30;74.80;;;;;;5022384;28;20037;-62
2022/07/29 04:28:04;;;;;;;10.23;2.58;;;24.30;75.00;;;;;;5008251;28;20029;-61
2022/07/29 04:30:30;;;;;;;9.68;2.10;;;24.30;75.00;;;;;;5023756;28;20050;-61
2022/07/29 04:32:56;;;;;;;5.22;2.45;;;24.20;75.20;;;;;;5025436;28;20244;-61
2022/07/29 04:35:21;;;;;;;8.35;2.15;;;24.20;75.10;;;;;;5025990;28;20030;-59
2022/07/29 04:37:47;;;;;;;7.35;2.10;;;24.20;75.40;;;;;;5022580;28;20025;-61
2022/07/29 04:40:13;;;;;;;9.52;2.80;;;24.10;74.80;;;;;;5007989;28;20029;-62
2022/07/29 04:42:39;;;;;;;10.20;2.30;;;24.10;75.40;;;;;;5023651;28;20035;-65
2022/07/29 04:45:05;;;;;;;5.05;2.45;;;24.10;75.40;;;;;;5007755;28;20023;-62
2022/07/29 04:47:30;;;;;;;7.30;2.33;;;24.10;75.60;;;;;;5023890;28;20132;-62
2022/07/29 04:49:56;;;;;;;4.65;2.10;;;24.10;75.60;;;;;;5025806;28;20124;-61
2022/07/29 04:52:22;;;;;;;5.30;2.03;;;24.10;75.50;;;;;;5025383;28;20022;-62
2022/07/29 04:54:47;;;;;;;6.45;2.30;;;24.10;75.50;;;;;;5006892;28;20779;-61
2022/07/29 04:57:13;;;;;;;8.50;2.33;;;24.10;75.60;;;;;;5023909;28;20026;-62
2022/07/29 04:59:38;;;;;;;12.80;2.05;;;24.00;75.60;;;;;;5023279;28;20116;-61
2022/07/29 05:02:04;;;;;;;5.50;1.80;;;24.00;75.60;;;;;;5023542;28;20040;-61
2022/07/29 05:04:29;;;;;;;6.07;1.95;;;24.10;75.70;;;;;;5025727;28;20488;-61
2022/07/29 05:06:55;;;;;;;6.35;2.28;;;24.00;75.60;;;;;;5023291;28;20060;-61
2022/07/29 05:09:20;;;;;;;3.83;1.77;;;24.00;75.60;;;;;;5024821;28;20034;-61
2022/07/29 05:11:46;;;;;;;6.97;1.90;;;24.00;76.10;;;;;;5024338;28;20021;-61
2022/07/29 05:14:11;;;;;;;6.10;1.90;;;24.00;75.30;;;;;;5022966;28;20412;-61
2022/07/29 05:16:38;;;;;;;6.82;2.00;;;24.00;75.20;;;;;;5023232;28;20553;-61
2022/07/29 05:19:04;;;;;;;8.43;2.10;;;24.00;75.30;;;;;;5024097;28;20029;-61
2022/07/29 05:21:29;;;;;;;2.45;1.65;;;24.00;75.40;;;;;;5005738;28;20394;-61
2022/07/29 05:23:55;;;;;;;3.38;1.90;;;24.00;75.50;;;;;;5024189;28;20516;-62
2022/07/29 05:26:22;;;;;;;5.57;2.15;;;24.00;75.40;;;;;;5020199;28;20060;-63
2022/07/29 05:28:47;;;;;;;5.20;2.00;;;24.00;75.50;;;;;;5024296;28;20022;-61
2022/07/29 05:31:14;;;;;;;3.40;1.73;;;24.00;75.60;;;;;;5023373;28;20029;-61
2022/07/29 05:33:40;;;;;;;8.57;2.10;;;24.00;75.70;;;;;;5025041;28;20067;-61
2022/07/29 05:36:06;;;;;;;6.10;1.88;;;24.00;75.90;;;;;;5023416;28;20033;-61
2022/07/29 05:38:32;;;;;;;4.93;1.83;;;24.00;76.00;;;;;;5021890;28;20041;-61
2022/07/29 05:40:58;;;;;;;6.03;1.85;;;24.00;76.00;;;;;;5024615;28;20037;-61
2022/07/29 05:43:24;;;;;;;5.38;1.95;;;24.00;76.10;;;;;;5015311;28;20111;-61
2022/07/29 05:45:50;;;;;;;4.40;2.00;;;24.00;76.00;;;;;;5020011;28;20112;-60
2022/07/29 05:48:15;;;;;;;8.25;1.80;;;24.00;75.90;;;;;;5016701;28;20116;-61
2022/07/29 05:50:41;;;;;;;8.48;2.03;;;24.00;75.90;;;;;;5018864;28;20412;-60
2022/07/29 05:53:06;;;;;;;1.95;1.48;;;24.00;75.90;;;;;;5017893;28;20041;-60
2022/07/29 05:55:32;;;;;;;6.85;2.00;;;24.00;76.00;;;;;;5017726;28;20041;-60
2022/07/29 05:57:57;;;;;;;2.40;1.90;;;24.00;75.90;;;;;;5013005;28;20121;-60
2022/07/29 06:00:23;;;;;;;3.15;1.70;;;24.00;76.20;;;;;;5013277;28;20060;-61
2022/07/29 06:02:48;;;;;;;2.83;1.70;;;24.00;76.90;;;;;;5019414;28;20484;-61
2022/07/29 06:05:15;;;;;;;2.58;1.60;;;24.00;78.20;;;;;;5020044;28;20067;-60
2022/07/29 06:07:40;;;;;;;2.40;1.63;;;23.90;79.00;;;;;;5016549;28;20033;-61
2022/07/29 06:10:06;;;;;;;3.55;1.95;;;23.80;79.20;;;;;;5018157;28;20032;-61
2022/07/29 06:12:31;;;;;;;2.30;1.70;;;23.80;80.10;;;;;;5016440;28;20104;-61
2022/07/29 06:14:57;;;;;;;3.30;1.90;;;23.70;79.90;;;;;;5016694;28;20069;-61
2022/07/29 06:17:23;;;;;;;4.63;2.03;;;23.70;80.80;;;;;;5016853;28;20053;-60
2022/07/29 06:19:48;;;;;;;6.63;1.80;;;23.60;81.30;;;;;;5017343;28;20120;-61
2022/07/29 06:22:16;;;;;;;2.38;1.70;;;23.60;81.30;;;;;;5000307;28;20049;-61
2022/07/29 06:24:43;;;;;;;3.60;1.70;;;23.50;81.70;;;;;;5015825;28;20055;-60
2022/07/29 06:27:12;;;;;;;3.72;1.50;;;23.50;81.50;;;;;;5017027;28;20029;-61
2022/07/29 06:29:37;;;;;;;2.40;1.80;;;23.50;81.30;;;;;;4998869;28;20028;-61
2022/07/29 06:32:03;;;;;;;3.10;1.90;;;23.50;81.30;;;;;;5017659;28;20373;-60
2022/07/29 06:34:29;;;;;;;3.00;1.98;;;23.50;81.10;;;;;;5016210;28;20106;-60
2022/07/29 06:36:54;;;;;;;4.78;1.85;;;23.50;81.40;;;;;;5015364;28;20482;-60
2022/07/29 06:39:20;;;;;;;6.32;2.65;;;23.50;81.50;;;;;;5013471;28;20512;-60
2022/07/29 06:41:50;;;;;;;5.60;1.90;;;23.50;81.90;;;;;;5015042;28;20088;-60
2022/07/29 06:44:16;;;;;;;7.88;2.28;;;23.40;81.70;;;;;;4995695;28;20032;-61
2022/07/29 06:46:41;;;;;;;14.88;2.83;;;23.40;81.60;;;;;;5013566;28;20037;-61
2022/07/29 06:49:07;;;;;;;11.63;3.50;;;23.40;81.70;;;;;;5009681;28;20124;-62
2022/07/29 06:51:32;;;;;;;15.38;3.42;;;23.40;81.50;;;;;;5017032;28;20025;-63
2022/07/29 06:53:58;;;;;;;13.55;3.25;;;23.40;81.80;;;;;;4998627;28;20117;-61
2022/07/29 06:56:24;;;;;;;14.35;3.00;;;23.40;81.60;;;;;;5013926;28;20151;-61
2022/07/29 06:58:49;;;;;;;13.98;2.97;;;23.40;82.20;;;;;;5015443;28;20033;-62
2022/07/29 07:01:15;;;;;;;20.05;3.30;;;23.50;82.00;;;;;;5014749;28;20494;-62
2022/07/29 07:03:41;;;;;;;15.75;3.45;;;23.50;82.70;;;;;;5013074;28;20025;-62
2022/07/29 07:06:07;;;;;;;28.38;4.70;;;23.40;83.00;;;;;;5014424;28;20053;-62
2022/07/29 07:08:32;;;;;;;14.13;3.85;;;23.50;83.30;;;;;;5006379;28;20513;-62
2022/07/29 07:10:58;;;;;;;27.77;4.10;;;23.50;83.80;;;;;;4998262;28;20244;-62
2022/07/29 07:13:23;;;;;;;23.00;4.82;;;23.50;83.90;;;;;;4999808;28;20037;-62
2022/07/29 07:15:50;;;;;;;30.08;4.05;;;23.50;84.10;;;;;;5020786;28;20029;-62
2022/07/29 07:18:16;;;;;;;25.13;4.85;;;23.50;84.20;;;;;;5009711;28;20061;-61
2022/07/29 07:20:41;;;;;;;38.85;5.88;;;23.50;84.20;;;;;;5011272;28;20014;-62
2022/07/29 07:23:07;;;;;;;41.67;6.50;;;23.40;84.70;;;;;;4997240;28;20029;-62
2022/07/29 07:25:32;;;;;;;38.47;5.78;;;23.50;85.00;;;;;;4995219;28;20481;-62
2022/07/29 07:27:58;;;;;;;40.47;5.80;;;23.40;85.00;;;;;;5015261;28;20025;-62
2022/07/29 07:30:23;;;;;;;44.13;6.50;;;23.40;85.20;;;;;;5014581;28;20084;-63
2022/07/29 07:32:49;;;;;;;51.65;6.68;;;23.40;85.80;;;;;;5010728;28;20064;-62
2022/07/29 07:35:14;;;;;;;33.80;6.35;;;23.40;85.80;;;;;;5012819;28;20026;-62
2022/07/29 07:37:40;;;;;;;117.88;13.23;;;23.40;86.00;;;;;;5015977;28;20045;-61
2022/07/29 07:40:06;;;;;;;70.80;9.43;;;23.40;86.20;;;;;;5015053;28;20037;-62
2022/07/29 07:42:32;;;;;;;79.43;8.35;;;23.40;86.60;;;;;;5014815;28;20037;-62
2022/07/29 07:44:57;;;;;;;51.25;7.60;;;23.40;86.70;;;;;;5011163;28;20029;-61
2022/07/29 07:47:24;;;;;;;60.03;7.03;;;23.40;87.00;;;;;;4993305;28;20505;-61
2022/07/29 07:49:50;;;;;;;41.47;7.25;;;23.30;87.00;;;;;;5012285;28;20456;-62
2022/07/29 07:52:16;;;;;;;36.35;5.80;;;23.40;87.80;;;;;;5011467;28;20061;-62
2022/07/29 07:54:42;;;;;;;26.33;5.82;;;23.30;87.10;;;;;;5009517;28;20471;-61
2022/07/29 07:57:08;;;;;;;74.45;8.55;;;23.30;87.10;;;;;;5015539;28;20029;-62
2022/07/29 07:59:33;;;;;;;57.92;8.20;;;23.40;86.90;;;;;;5012064;28;20037;-62
2022/07/29 08:02:00;;;;;;;41.55;6.30;;;23.30;86.80;;;;;;5013450;28;20041;-62
2022/07/29 08:04:26;;;;;;;31.02;6.18;;;23.40;87.20;;;;;;5017291;28;20021;-63
2022/07/29 08:06:53;;;;;;;44.15;6.03;;;23.30;87.40;;;;;;5012121;28;20052;-62
2022/07/29 08:09:22;;;;;;;49.08;6.28;;;23.40;87.50;;;;;;5014641;28;20040;-62
2022/07/29 08:11:47;;;;;;;272.95;29.52;;;23.40;88.00;;;;;;5016158;28;20087;-62
2022/07/29 08:14:13;;;;;;;109.00;11.27;;;23.40;87.80;;;;;;5017692;28;20072;-62
2022/07/29 08:16:40;;;;;;;59.97;8.40;;;23.40;88.40;;;;;;4999032;28;20045;-62
2022/07/29 08:19:05;;;;;;;64.55;8.63;;;23.40;87.30;;;;;;5016462;28;20493;-62
2022/07/29 08:21:31;;;;;;;58.75;8.50;;;23.40;87.40;;;;;;5020166;28;20081;-66
2022/07/29 08:26:41;;;;;;;57.72;8.20;;;23.40;87.80;;;;;;5016381;28;20124;-61
2022/07/29 08:29:07;;;;;;;51.67;7.22;;;23.40;87.80;;;;;;5000108;28;20025;-62
2022/07/29 08:31:32;;;;;;;46.17;7.13;;;23.40;87.50;;;;;;5015520;28;20068;-63
2022/07/29 08:33:59;;;;;;;49.13;6.95;;;23.40;87.50;;;;;;5017360;28;20140;-62
2022/07/29 08:36:25;;;;;;;52.45;7.40;;;23.40;87.50;;;;;;5017997;28;20104;-62
2022/07/29 08:38:51;;;;;;;272.80;26.98;;;23.40;87.40;;;;;;5014472;28;20033;-61
2022/07/29 08:41:18;;;;;;;42.10;7.63;;;23.40;87.50;;;;;;5013915;28;20153;-62
2022/07/29 08:43:44;;;;;;;47.00;7.75;;;23.40;87.50;;;;;;5016202;28;20031;-62
2022/07/29 08:46:09;;;;;;;87.78;13.43;;;23.40;87.40;;;;;;5000571;28;20037;-62
2022/07/29 08:48:35;;;;;;;75.15;9.95;;;23.40;87.60;;;;;;5015120;28;20515;-62
2022/07/29 08:51:01;;;;;;;78.03;8.98;;;23.50;87.80;;;;;;5000607;28;20446;-62
2022/07/29 08:53:26;;;;;;;73.38;9.48;;;23.50;87.70;;;;;;5013279;28;20044;-62
2022/07/29 08:55:52;;;;;;;64.22;9.80;;;23.50;87.70;;;;;;5000277;28;20417;-62
2022/07/29 08:58:17;;;;;;;73.57;8.43;;;23.60;87.50;;;;;;5016067;28;20429;-62
2022/07/29 09:00:50;;;;;;;69.68;8.77;;;23.60;87.60;;;;;;4999597;28;20654;-62
2022/07/29 09:03:17;;;;;;;67.28;9.25;;;23.70;87.20;;;;;;5017130;28;20937;-62
2022/07/29 09:05:44;;;;;;;64.00;8.52;;;23.70;86.90;;;;;;5019137;28;20192;-62
2022/07/29 09:08:10;;;;;;;65.22;8.23;;;23.80;86.80;;;;;;5001580;28;20045;-62
2022/07/29 09:10:36;;;;;;;69.70;8.68;;;23.80;86.40;;;;;;5000595;28;20556;-62
2022/07/29 09:13:01;;;;;;;361.10;38.80;;;23.80;86.30;;;;;;5033550;28;20056;-62
2022/07/29 09:15:27;;;;;;;55.85;8.15;;;23.90;86.70;;;;;;5017176;28;20068;-62
2022/07/29 09:17:52;;;;;;;105.70;13.10;;;23.90;85.90;;;;;;5013478;28;20529;-62
2022/07/29 09:20:20;;;;;;;69.68;9.32;;;23.90;85.50;;;;;;5017915;28;20124;-62
2022/07/29 09:22:48;;;;;;;81.57;11.00;;;23.90;85.60;;;;;;5016454;28;20033;-62
2022/07/29 09:25:14;;;;;;;93.40;10.93;;;23.90;85.80;;;;;;5000732;28;20060;-62
2022/07/29 09:27:40;;;;;;;59.15;9.13;;;23.90;85.60;;;;;;5015320;28;20140;-62
2022/07/29 09:30:10;;;;;;;68.60;9.40;;;24.00;85.60;;;;;;5016665;28;20065;-62
2022/07/29 09:32:54;;;;;;;86.75;10.30;;;24.00;85.30;;;;;;4996146;28;20033;-62
2022/07/29 09:35:21;;;;;;;63.92;8.40;;;24.00;85.80;;;;;;5015504;28;20021;-61
2022/07/29 09:37:46;;;;;;;72.78;9.30;;;24.10;86.30;;;;;;5008432;28;20021;-62
2022/07/29 09:40:17;;;;;;;59.70;7.95;;;24.10;86.20;;;;;;5015755;28;20080;-62
2022/07/29 09:42:42;;;;;;;75.00;10.00;;;24.20;86.10;;;;;;4999684;28;20172;-62
2022/07/29 09:45:08;;;;;;;77.03;10.25;;;24.20;85.40;;;;;;5017921;28;20448;-62
2022/07/29 09:47:45;;;;;;;69.78;9.50;;;24.30;85.20;;;;;;5013744;28;20045;-61
2022/07/29 09:50:10;;;;;;;70.65;9.00;;;24.30;85.00;;;;;;4996063;28;20045;-62
2022/07/29 09:52:48;;;;;;;54.58;8.93;;;24.40;85.00;;;;;;5013314;28;20043;-62
2022/07/29 09:55:14;;;;;;;66.90;9.25;;;24.40;84.80;;;;;;5010718;28;20038;-62
2022/07/29 09:57:39;;;;;;;59.75;9.10;;;24.40;84.50;;;;;;5001030;28;20043;-62
2022/07/29 10:00:13;;;;;;;59.15;8.65;;;24.50;84.20;;;;;;5016004;28;20389;-62
2022/07/29 10:02:39;;;;;;;118.22;12.57;;;24.50;84.70;;;;;;4993464;28;20037;-63
2022/07/29 10:05:15;;;;;;;77.38;9.77;;;24.50;83.90;;;;;;4993910;28;20087;-62
2022/07/29 10:07:45;;;;;;;66.10;9.40;;;24.50;83.70;;;;;;5013205;28;20566;-62
2022/07/29 10:10:17;;;;;;;71.97;10.18;;;24.60;83.20;;;;;;5012265;28;20029;-62
2022/07/29 10:12:58;;;;;;;66.72;8.45;;;24.60;82.80;;;;;;5011216;28;21085;-63
2022/07/29 10:15:25;;;;;;;77.88;10.32;;;24.70;83.20;;;;;;5011297;28;20380;-61
2022/07/29 10:17:52;;;;;;;64.47;9.68;;;24.70;82.60;;;;;;5012077;28;20049;-62
2022/07/29 10:20:17;;;;;;;89.93;11.00;;;24.70;82.70;;;;;;5010872;28;20041;-62
2022/07/29 10:22:43;;;;;;;79.22;10.02;;;24.80;82.50;;;;;;5012930;28;20115;-62
2022/07/29 10:25:09;;;;;;;82.70;9.63;;;24.80;82.30;;;;;;5011192;28;20026;-62
2022/07/29 10:27:35;;;;;;;79.30;9.95;;;24.80;82.00;;;;;;5009561;28;20629;-62
2022/07/29 10:30:01;;;;;;;86.82;11.70;;;24.80;81.60;;;;;;5015405;28;20042;-62
2022/07/29 10:32:48;;;;;;;74.85;10.38;;;24.90;81.60;;;;;;5011801;28;20018;-62
2022/07/29 10:35:51;;;;;;;91.30;11.95;;;24.90;82.00;;;;;;5014773;28;20032;-62
2022/07/29 10:38:47;;;;;;;114.22;12.80;;;24.90;81.00;;;;;;5010685;28;20679;-62
2022/07/29 10:41:34;;;;;;;116.20;12.43;;;24.90;81.10;;;;;;5012892;28;20036;-60
2022/07/29 10:44:05;;;;;;;81.72;11.73;;;24.90;80.80;;;;;;5009110;28;20389;-62
2022/07/29 10:46:37;;;;;;;91.95;10.95;;;25.00;80.60;;;;;;5009344;28;20448;-62
2022/07/29 10:49:15;;;;;;;84.53;10.43;;;25.00;80.80;;;;;;4977843;28;20480;-60
2022/07/29 10:52:09;;;;;;;64.40;9.45;;;25.10;80.30;;;;;;5010852;28;20072;-63
2022/07/29 10:54:44;;;;;;;63.88;9.13;;;25.10;79.90;;;;;;5015939;28;20025;-61
2022/07/29 10:57:14;;;;;;;67.55;8.93;;;25.20;79.50;;;;;;5008126;28;20120;-61
2022/07/29 10:59:40;;;;;;;53.15;7.53;;;25.20;79.00;;;;;;5021316;28;20021;-60
2022/07/29 11:02:34;;;;;;;51.28;6.80;;;25.20;78.60;;;;;;4991224;28;20033;-60
2022/07/29 11:05:01;;;;;;;54.42;8.02;;;25.30;78.30;;;;;;5009584;28;20072;-61
2022/07/29 11:07:26;;;;;;;59.17;8.07;;;25.40;77.90;;;;;;5009190;28;20041;-60
2022/07/29 11:10:21;;;;;;;53.72;7.97;;;25.40;77.80;;;;;;5014294;28;20654;-60
2022/07/29 11:12:47;;;;;;;49.53;6.95;;;25.40;77.40;;;;;;4997708;28;20076;-60
2022/07/29 11:15:20;;;;;;;46.30;6.38;;;25.50;77.30;;;;;;4996192;28;20148;-60
2022/07/29 11:17:58;;;;;;;38.60;6.80;;;25.50;77.20;;;;;;4993401;28;20565;-60
2022/07/29 11:20:44;;;;;;;33.13;6.15;;;25.50;77.30;;;;;;5013178;28;20048;-60
2022/07/29 11:23:29;;;;;;;43.25;6.75;;;25.50;77.40;;;;;;5008881;28;20377;-60
2022/07/29 11:26:16;;;;;;;41.80;6.53;;;25.60;77.40;;;;;;5011549;28;20055;-63
2022/07/29 11:29:17;;;;;;;47.25;6.95;;;25.60;77.60;;;;;;5016779;28;20120;-63
2022/07/29 11:31:44;;;;;;;29.40;5.78;;;25.70;77.80;;;;;;5014317;28;20024;-60
2022/07/29 11:34:23;;;;;;;43.65;8.10;;;25.70;77.50;;;;;;5003368;28;20047;-60
2022/07/29 11:37:11;;;;;;;52.58;8.00;;;25.80;77.50;;;;;;5011853;28;20032;-62
2022/07/29 11:39:44;;;;;;;47.42;6.95;;;25.90;77.30;;;;;;5014299;28;20160;-62
2022/07/29 11:42:24;;;;;;;48.15;7.20;;;25.90;77.10;;;;;;4994133;28;20022;-62
2022/07/29 11:45:00;;;;;;;45.75;6.03;;;26.00;76.80;;;;;;5016623;28;20060;-62
2022/07/29 11:47:26;;;;;;;;;;;26.00;76.70;;;;;;5010060;28;20132;-62
2022/07/29 11:49:52;;;;;;;38.10;6.93;;;26.00;76.40;;;;;;5012431;28;19948;-61
2022/07/29 11:52:18;;;;;;;36.15;7.30;;;26.10;76.20;;;;;;5013573;28;20431;-62
2022/07/29 11:54:44;;;;;;;36.92;5.78;;;26.10;76.10;;;;;;5014035;28;20476;-62
2022/07/29 11:57:09;;;;;;;68.32;8.50;;;26.10;75.50;;;;;;4996276;28;20116;-61
2022/07/29 11:59:42;;;;;;;35.22;6.03;;;26.20;74.10;;;;;;5014444;28;20038;-62
2022/07/29 12:02:08;;;;;;;54.30;7.53;;;26.20;74.50;;;;;;5011326;28;20042;-61
2022/07/29 12:04:34;;;;;;;42.63;6.25;;;26.20;73.10;;;;;;5008931;28;20079;-62
2022/07/29 12:06:59;;;;;;;39.63;6.25;;;26.20;74.20;;;;;;5013710;28;20247;-62
2022/07/29 12:09:25;;;;;;;39.17;5.72;;;26.20;74.30;;;;;;5012313;28;20203;-61
2022/07/29 12:11:56;;;;;;;45.65;6.07;;;26.30;72.70;;;;;;5012019;28;20037;-61
2022/07/29 12:14:32;;;;;;;45.67;6.85;;;26.30;72.70;;;;;;4998279;28;20100;-61
2022/07/29 12:16:57;;;;;;;;;;;26.40;72.20;;;;;;5013153;28;20041;-62
2022/07/29 12:19:23;;;;;;;;;;;26.40;72.50;;;;;;5014773;28;19924;-62
2022/07/29 12:21:52;;;;;;;28.47;5.57;;;26.40;72.20;;;;;;5015587;28;20080;-61
2022/07/29 12:24:18;;;;;;;34.38;5.78;;;26.50;71.60;;;;;;5000054;28;20033;-61
2022/07/29 12:27:10;;;;;;;37.03;5.75;;;26.50;71.90;;;;;;4996541;28;20059;-62
2022/07/29 12:29:35;;;;;;;36.88;6.00;;;26.50;71.80;;;;;;5011069;28;20176;-63
2022/07/29 12:32:01;;;;;;;26.45;5.35;;;26.50;71.80;;;;;;5012334;28;20032;-62
2022/07/29 12:34:27;;;;;;;35.97;6.00;;;26.50;71.50;;;;;;4994113;28;20280;-62
2022/07/29 12:36:52;;;;;;;49.22;7.18;;;26.60;71.40;;;;;;4999249;28;20025;-62
2022/07/29 12:39:18;;;;;;;33.25;5.93;;;26.50;71.50;;;;;;5017276;28;20688;-62
2022/07/29 12:41:43;;;;;;;40.22;5.47;;;26.60;71.60;;;;;;5010197;28;20029;-66
2022/07/29 12:44:09;;;;;;;43.08;6.25;;;26.60;71.70;;;;;;5011716;28;20108;-62
2022/07/29 12:46:35;;;;;;;32.35;5.70;;;26.60;71.80;;;;;;5011303;28;20033;-63
2022/07/29 12:49:00;;;;;;;93.50;8.57;;;26.70;71.90;;;;;;5013962;28;20060;-62
2022/07/29 12:51:31;;;;;;;48.03;6.90;;;26.70;72.30;;;;;;5019602;28;20037;-64